Time,TemperatureF,DewpointF,PressureIn,WindDirection,WindDirectionDegrees,WindSpeedMPH,WindSpeedGustMPH,Humidity,HourlyPrecipIn,Conditions,Clouds,dailyrainin,SoftwareType,DateUTC
2013-02-03 00:02:00,58.0,39.0,30.26,NNW,329,0.0,7.0,50,0.00,,,0.00,weatherlink.com 1.10,2013-02-03 06:02:00,
2013-02-03 00:17:00,58.5,39.0,30.26,ESE,109,5.0,7.0,49,0.00,,,0.00,weatherlink.com 1.10,2013-02-03 06:17:00,
2013-02-03 00:32:00,58.6,39.0,30.26,NE,43,1.0,5.0,48,0.00,,,0.00,weatherlink.com 1.10,2013-02-03 06:32:00,
2013-02-03 00:47:00,58.4,38.0,30.26,NE,53,1.0,5.0,47,0.00,,,0.00,weatherlink.com 1.10,2013-02-03 06:47:00,
2013-02-03 01:02:00,58.1,38.0,30.26,WNW,302,1.0,5.0,48,0.00,,,0.00,weatherlink.com 1.10,2013-02-03 07:02:00,
2013-02-03 01:17:00,57.7,37.0,30.26,NNE,21,0.0,7.0,47,0.00,,,0.00,weatherlink.com 1.10,2013-02-03 07:17:00,
2013-02-03 01:32:00,56.8,37.0,30.26,NNW,333,1.0,4.0,48,0.00,,,0.00,weatherlink.com 1.10,2013-02-03 07:32:00,
2013-02-03 01:47:00,56.1,36.0,30.26,ENE,64,0.0,3.0,48,0.00,,,0.00,weatherlink.com 1.10,2013-02-03 07:47:00,
2013-02-03 02:02:00,55.6,37.0,30.25,ENE,61,0.0,3.0,49,0.00,,,0.00,weatherlink.com 1.10,2013-02-03 08:02:00,
2013-02-03 02:17:00,55.1,37.0,30.26,NNE,24,0.0,3.0,50,0.00,,,0.00,weatherlink.com 1.10,2013-02-03 08:17:00,
2013-02-03 02:33:00,54.7,36.0,30.25,NE,49,0.0,3.0,50,0.00,,,0.00,weatherlink.com 1.10,2013-02-03 08:33:00,
2013-02-03 02:47:00,54.3,36.0,30.25,NNE,32,0.0,4.0,51,0.00,,,0.00,weatherlink.com 1.10,2013-02-03 08:47:00,
2013-02-03 03:02:00,53.9,36.0,30.25,NNE,32,0.0,2.0,51,0.00,,,0.00,weatherlink.com 1.10,2013-02-03 09:02:00,
2013-02-03 03:17:00,53.5,36.0,30.25,West,269,0.0,2.0,51,0.00,,,0.00,weatherlink.com 1.10,2013-02-03 09:17:00,
2013-02-03 03:33:00,52.9,35.0,30.26,NE,40,2.0,2.0,52,0.00,,,0.00,weatherlink.com 1.10,2013-02-03 09:33:00,
2013-02-03 03:47:00,52.4,35.0,30.26,NE,51,0.0,1.0,52,0.00,,,0.00,weatherlink.com 1.10,2013-02-03 09:47:00,
2013-02-03 04:02:00,51.7,35.0,30.26,NE,51,0.0,0.0,53,0.00,,,0.00,weatherlink.com 1.10,2013-02-03 10:02:00,
2013-02-03 04:18:00,51.4,35.0,30.26,North,6,0.0,1.0,54,0.00,,,0.00,weatherlink.com 1.10,2013-02-03 10:18:00,
2013-02-03 04:32:00,51.4,35.0,30.26,NE,55,0.0,1.0,54,0.00,,,0.00,weatherlink.com 1.10,2013-02-03 10:32:00,
2013-02-03 04:47:00,51.0,35.0,30.26,NE,36,0.0,1.0,54,0.00,,,0.00,weatherlink.com 1.10,2013-02-03 10:47:00,
2013-02-03 05:03:00,50.7,35.0,30.26,NE,35,0.0,1.0,55,0.00,,,0.00,weatherlink.com 1.10,2013-02-03 11:03:00,
2013-02-03 05:18:00,50.4,35.0,30.26,NE,35,0.0,0.0,56,0.00,,,0.00,weatherlink.com 1.10,2013-02-03 11:18:00,
2013-02-03 05:33:00,49.4,38.0,30.26,NW,316,0.0,0.0,65,0.00,,,0.00,weatherlink.com 1.10,2013-02-03 11:33:00,
2013-02-03 05:48:00,48.3,37.0,30.26,NNW,347,0.0,1.0,65,0.00,,,0.00,weatherlink.com 1.10,2013-02-03 11:48:00,
2013-02-03 06:03:00,48.5,37.0,30.27,WNW,294,0.0,1.0,64,0.00,,,0.00,weatherlink.com 1.10,2013-02-03 12:03:00,
2013-02-03 06:18:00,47.1,38.0,30.27,WNW,296,0.0,1.0,70,0.00,,,0.00,weatherlink.com 1.10,2013-02-03 12:18:00,
2013-02-03 06:33:00,46.0,37.0,30.27,WNW,294,0.0,1.0,70,0.00,,,0.00,weatherlink.com 1.10,2013-02-03 12:33:00,
2013-02-03 06:48:00,45.1,37.0,30.27,WNW,289,0.0,1.0,72,0.00,,,0.00,weatherlink.com 1.10,2013-02-03 12:48:00,
2013-02-03 07:03:00,44.7,37.0,30.28,West,271,1.0,1.0,73,0.00,,,0.00,weatherlink.com 1.10,2013-02-03 13:03:00,
2013-02-03 07:18:00,44.8,36.0,30.28,NE,53,0.0,0.0,72,0.00,,,0.00,weatherlink.com 1.10,2013-02-03 13:18:00,
2013-02-03 07:33:00,44.8,36.0,30.28,West,272,0.0,0.0,72,0.00,,,0.00,weatherlink.com 1.10,2013-02-03 13:33:00,
2013-02-03 07:48:00,45.2,37.0,30.29,WNW,301,0.0,0.0,72,0.00,,,0.00,weatherlink.com 1.10,2013-02-03 13:48:00,
2013-02-03 08:03:00,46.3,37.0,30.29,NE,40,0.0,1.0,70,0.00,,,0.00,weatherlink.com 1.10,2013-02-03 14:03:00,
2013-02-03 08:18:00,47.7,38.0,30.29,North,355,0.0,1.0,70,0.00,,,0.00,weatherlink.com 1.10,2013-02-03 14:18:00,
2013-02-03 08:48:00,50.5,38.0,30.30,West,266,0.0,2.0,63,0.00,,,0.00,weatherlink.com 1.10,2013-02-03 14:48:00,
2013-02-03 09:03:00,53.0,38.0,30.30,NNE,28,0.0,1.0,58,0.00,,,0.00,weatherlink.com 1.10,2013-02-03 15:03:00,
2013-02-03 09:18:00,56.6,37.0,30.31,SE,135,1.0,4.0,49,0.00,,,0.00,weatherlink.com 1.10,2013-02-03 15:18:00,
2013-02-03 09:33:00,59.4,37.0,30.30,WNW,288,2.0,5.0,43,0.00,,,0.00,weatherlink.com 1.10,2013-02-03 15:33:00,
2013-02-03 09:48:00,61.1,36.0,30.30,East,82,3.0,5.0,40,0.00,,,0.00,weatherlink.com 1.10,2013-02-03 15:48:00,
2013-02-03 10:03:00,62.0,37.0,30.30,SSW,204,2.0,7.0,39,0.00,,,0.00,weatherlink.com 1.10,2013-02-03 16:03:00,
2013-02-03 10:18:00,62.7,37.0,30.30,South,170,1.0,8.0,38,0.00,,,0.00,weatherlink.com 1.10,2013-02-03 16:18:00,
2013-02-03 10:34:00,63.5,36.0,30.30,SSW,195,2.0,5.0,36,0.00,,,0.00,weatherlink.com 1.10,2013-02-03 16:34:00,
2013-02-03 10:48:00,64.8,36.0,30.30,ENE,58,3.0,5.0,35,0.00,,,0.00,weatherlink.com 1.10,2013-02-03 16:48:00,
2013-02-03 11:03:00,65.8,36.0,30.29,South,174,1.0,5.0,33,0.00,,,0.00,weatherlink.com 1.10,2013-02-03 17:03:00,
2013-02-03 11:19:00,66.1,32.0,30.29,South,173,0.0,9.0,28,0.00,,,0.00,weatherlink.com 1.10,2013-02-03 17:19:00,
2013-02-03 11:34:00,67.1,32.0,30.28,SSW,193,1.0,6.0,27,0.00,,,0.00,weatherlink.com 1.10,2013-02-03 17:34:00,
2013-02-03 11:49:00,68.4,32.0,30.27,SSE,162,2.0,7.0,26,0.00,,,0.00,weatherlink.com 1.10,2013-02-03 17:49:00,
2013-02-03 12:04:00,69.3,32.0,30.26,SSW,200,2.0,4.0,25,0.00,,,0.00,weatherlink.com 1.10,2013-02-03 18:04:00,
2013-02-03 12:19:00,70.0,33.0,30.25,West,269,1.0,7.0,25,0.00,,,0.00,weatherlink.com 1.10,2013-02-03 18:19:00,
2013-02-03 12:34:00,70.3,28.0,30.23,South,178,2.0,7.0,21,0.00,,,0.00,weatherlink.com 1.10,2013-02-03 18:34:00,
2013-02-03 12:49:00,70.7,29.0,30.22,SW,226,2.0,6.0,21,0.00,,,0.00,weatherlink.com 1.10,2013-02-03 18:49:00,
2013-02-03 13:04:00,71.1,27.0,30.20,South,191,2.0,6.0,19,0.00,,,0.00,weatherlink.com 1.10,2013-02-03 19:04:00,
2013-02-03 13:19:00,71.7,26.0,30.19,SW,214,2.0,5.0,18,0.00,,,0.00,weatherlink.com 1.10,2013-02-03 19:19:00,
2013-02-03 13:34:00,72.6,25.0,30.18,South,169,2.0,10.0,17,0.00,,,0.00,weatherlink.com 1.10,2013-02-03 19:34:00,
2013-02-03 13:49:00,72.6,25.0,30.17,SSE,168,2.0,7.0,17,0.00,,,0.00,weatherlink.com 1.10,2013-02-03 19:49:00,
2013-02-03 14:04:00,72.7,27.0,30.16,South,190,4.0,5.0,18,0.00,,,0.00,weatherlink.com 1.10,2013-02-03 20:04:00,
2013-02-03 14:19:00,72.4,29.0,30.14,SSW,201,1.0,6.0,20,0.00,,,0.00,weatherlink.com 1.10,2013-02-03 20:19:00,
2013-02-03 14:35:00,73.2,30.0,30.13,SW,218,3.0,5.0,20,0.00,,,0.00,weatherlink.com 1.10,2013-02-03 20:35:00,
2013-02-03 14:49:00,73.5,29.0,30.12,South,179,4.0,6.0,19,0.00,,,0.00,weatherlink.com 1.10,2013-02-03 20:49:00,
2013-02-03 15:04:00,73.5,30.0,30.11,ESE,115,3.0,7.0,20,0.00,,,0.00,weatherlink.com 1.10,2013-02-03 21:04:00,
2013-02-03 15:19:00,73.5,32.0,30.11,SSW,209,3.0,10.0,22,0.00,,,0.00,weatherlink.com 1.10,2013-02-03 21:19:00,
2013-02-03 15:34:00,73.1,33.0,30.10,SSE,149,4.0,8.0,23,0.00,,,0.00,weatherlink.com 1.10,2013-02-03 21:34:00,
2013-02-03 15:49:00,73.5,34.0,30.09,SSW,212,4.0,7.0,24,0.00,,,0.00,weatherlink.com 1.10,2013-02-03 21:49:00,
2013-02-03 16:04:00,73.1,36.0,30.09,South,174,3.0,7.0,26,0.00,,,0.00,weatherlink.com 1.10,2013-02-03 22:04:00,
2013-02-03 16:20:00,71.3,37.0,30.08,SSW,205,5.0,9.0,29,0.00,,,0.00,weatherlink.com 1.10,2013-02-03 22:20:00,
2013-02-03 16:35:00,71.3,38.0,30.08,SSE,165,2.0,8.0,30,0.00,,,0.00,weatherlink.com 1.10,2013-02-03 22:35:00,
2013-02-03 16:50:00,70.1,40.0,30.08,SSE,162,5.0,6.0,33,0.00,,,0.00,weatherlink.com 1.10,2013-02-03 22:50:00,
2013-02-03 17:05:00,69.0,41.0,30.08,SW,214,3.0,8.0,36,0.00,,,0.00,weatherlink.com 1.10,2013-02-03 23:05:00,
2013-02-03 17:20:00,68.2,41.0,30.07,South,173,3.0,7.0,37,0.00,,,0.00,weatherlink.com 1.10,2013-02-03 23:20:00,
2013-02-03 17:35:00,67.7,41.0,30.07,SE,138,3.0,6.0,38,0.00,,,0.00,weatherlink.com 1.10,2013-02-03 23:35:00,
2013-02-03 17:50:00,67.3,41.0,30.06,SSW,195,4.0,7.0,38,0.00,,,0.00,weatherlink.com 1.10,2013-02-03 23:50:00,
2013-02-03 18:05:00,66.8,41.0,30.06,SSW,194,2.0,6.0,39,0.00,,,0.00,weatherlink.com 1.10,2013-02-04 00:05:00,
2013-02-03 18:20:00,66.5,42.0,30.06,SSW,196,2.0,7.0,41,0.00,,,0.00,weatherlink.com 1.10,2013-02-04 00:20:00,
2013-02-03 18:35:00,66.2,43.0,30.06,South,177,2.0,11.0,43,0.00,,,0.00,weatherlink.com 1.10,2013-02-04 00:35:00,
2013-02-03 18:50:00,65.7,43.0,30.05,SSE,166,4.0,9.0,44,0.00,,,0.00,weatherlink.com 1.10,2013-02-04 00:50:00,
2013-02-03 19:05:00,65.5,43.0,30.05,SSW,196,2.0,10.0,45,0.00,,,0.00,weatherlink.com 1.10,2013-02-04 01:05:00,
2013-02-03 19:20:00,65.0,44.0,30.04,SSW,198,3.0,8.0,46,0.00,,,0.00,weatherlink.com 1.10,2013-02-04 01:20:00,
2013-02-03 19:35:00,64.8,44.0,30.04,South,188,3.0,7.0,47,0.00,,,0.00,weatherlink.com 1.10,2013-02-04 01:35:00,
2013-02-03 19:50:00,64.6,44.0,30.03,SE,138,4.0,7.0,48,0.00,,,0.00,weatherlink.com 1.10,2013-02-04 01:50:00,
2013-02-03 20:05:00,64.3,45.0,30.04,South,184,2.0,6.0,49,0.00,,,0.00,weatherlink.com 1.10,2013-02-04 02:05:00,
2013-02-03 20:20:00,64.1,45.0,30.03,SW,216,4.0,10.0,50,0.00,,,0.00,weatherlink.com 1.10,2013-02-04 02:20:00,
2013-02-03 20:35:00,63.8,45.0,30.02,SSE,153,5.0,8.0,51,0.00,,,0.00,weatherlink.com 1.10,2013-02-04 02:35:00,
2013-02-03 20:50:00,63.4,45.0,30.02,SSE,149,3.0,8.0,52,0.00,,,0.00,weatherlink.com 1.10,2013-02-04 02:50:00,
2013-02-03 21:05:00,63.3,45.0,30.02,SSW,198,5.0,7.0,52,0.00,,,0.00,weatherlink.com 1.10,2013-02-04 03:05:00,
2013-02-03 21:20:00,63.0,45.0,30.02,South,172,6.0,12.0,53,0.00,,,0.00,weatherlink.com 1.10,2013-02-04 03:20:00,
2013-02-03 21:35:00,62.6,46.0,30.01,SSE,151,6.0,9.0,55,0.00,,,0.00,weatherlink.com 1.10,2013-02-04 03:35:00,
2013-02-03 21:50:00,62.1,46.0,30.00,SE,131,4.0,10.0,56,0.00,,,0.00,weatherlink.com 1.10,2013-02-04 03:50:00,
2013-02-03 22:05:00,61.6,46.0,30.00,SW,217,5.0,11.0,57,0.00,,,0.00,weatherlink.com 1.10,2013-02-04 04:05:00,
2013-02-03 22:20:00,61.3,46.0,30.00,South,182,3.0,14.0,57,0.00,,,0.00,weatherlink.com 1.10,2013-02-04 04:20:00,
2013-02-03 22:35:00,60.9,45.0,30.01,SSE,162,5.0,12.0,56,0.00,,,0.00,weatherlink.com 1.10,2013-02-04 04:35:00,
2013-02-03 22:50:00,60.5,45.0,29.99,SSE,154,6.0,13.0,56,0.00,,,0.00,weatherlink.com 1.10,2013-02-04 04:50:00,
2013-02-03 23:05:00,60.3,45.0,30.00,SSE,162,3.0,12.0,57,0.00,,,0.00,weatherlink.com 1.10,2013-02-04 05:05:00,
2013-02-03 23:20:00,59.9,45.0,30.00,SSW,197,3.0,9.0,59,0.00,,,0.00,weatherlink.com 1.10,2013-02-04 05:20:00,
2013-02-03 23:35:00,59.5,46.0,30.00,SSW,198,1.0,8.0,61,0.00,,,0.00,weatherlink.com 1.10,2013-02-04 05:35:00,
2013-02-03 23:50:00,59.2,46.0,29.99,SSW,200,5.0,10.0,63,0.00,,,0.00,weatherlink.com 1.10,2013-02-04 05:50:00,